createdAt,value
2024-02-11T00:00:48.524Z,14.75
2024-02-11T00:03:50.735Z,14.72
2024-02-11T00:06:52.991Z,14.64
2024-02-11T00:09:55.390Z,14.58
2024-02-11T00:13:02.774Z,14.67
2024-02-11T00:16:11.178Z,14.70
2024-02-11T00:19:13.671Z,14.59
2024-02-11T00:22:15.948Z,14.71
2024-02-11T00:25:18.482Z,14.70
2024-02-11T00:28:24.093Z,14.66
2024-02-11T00:31:26.401Z,14.70
2024-02-11T00:34:34.284Z,14.69
2024-02-11T00:37:36.639Z,14.61
2024-02-11T00:40:38.897Z,14.67
2024-02-11T00:43:41.231Z,14.72
2024-02-11T00:46:43.557Z,14.65
2024-02-11T00:49:45.877Z,14.57
2024-02-11T00:52:49.510Z,14.61
2024-02-11T00:55:52.863Z,14.67
2024-02-11T00:58:57.240Z,14.61
2024-02-11T01:01:59.574Z,14.65
2024-02-11T01:05:02.132Z,14.66
2024-02-11T01:08:04.957Z,14.65
2024-02-11T01:11:09.675Z,14.59
2024-02-11T01:14:12.102Z,14.65
2024-02-11T01:17:14.477Z,14.52
2024-02-11T01:20:18.187Z,14.56
2024-02-11T01:23:20.639Z,14.52
2024-02-11T01:26:22.880Z,14.46
2024-02-11T01:29:25.143Z,14.48
2024-02-11T01:32:27.511Z,14.54
2024-02-11T01:35:30.146Z,14.49
2024-02-11T01:38:32.452Z,14.42
2024-02-11T01:41:34.855Z,14.42
2024-02-11T01:44:37.076Z,14.44
2024-02-11T01:47:39.496Z,14.46
2024-02-11T01:50:43.101Z,14.36
2024-02-11T01:53:50.116Z,14.31
2024-02-11T01:56:52.402Z,14.32
2024-02-11T01:59:54.693Z,14.34
2024-02-11T02:02:57.160Z,14.26
2024-02-11T02:05:59.711Z,14.28
2024-02-11T02:09:01.913Z,14.25
2024-02-11T02:12:05.661Z,14.24
2024-02-11T02:15:11.076Z,14.20
2024-02-11T02:18:13.609Z,14.19
2024-02-11T02:21:16.008Z,14.20
2024-02-11T02:24:18.525Z,14.24
2024-02-11T02:27:20.732Z,14.23
2024-02-11T02:30:23.678Z,14.25
2024-02-11T02:33:26.114Z,14.23
2024-02-11T02:36:28.801Z,14.20
2024-02-11T02:39:30.958Z,14.24
2024-02-11T02:42:33.178Z,14.22
2024-02-11T02:45:35.374Z,14.18
2024-02-11T02:48:37.711Z,14.16
2024-02-11T02:51:42.874Z,14.16
2024-02-11T02:54:45.295Z,14.17
2024-02-11T02:57:47.578Z,14.15
2024-02-11T03:00:50.505Z,14.10
2024-02-11T03:03:53.445Z,14.13
2024-02-11T03:06:58.495Z,14.09
2024-02-11T03:10:02.037Z,14.10
2024-02-11T03:13:04.300Z,14.11
2024-02-11T03:16:06.810Z,14.09
2024-02-11T03:19:09.073Z,14.08
2024-02-11T03:22:14.200Z,14.09
2024-02-11T03:25:16.797Z,14.12
2024-02-11T03:28:18.971Z,14.12
2024-02-11T03:31:21.202Z,14.10
2024-02-11T03:34:23.417Z,14.09
2024-02-11T03:37:27.598Z,14.03
2024-02-11T03:40:29.787Z,14.08
2024-02-11T03:43:32.088Z,14.02
2024-02-11T03:46:34.511Z,14.06
2024-02-11T03:49:36.825Z,14.02
2024-02-11T03:52:39.141Z,14.02
2024-02-11T03:55:41.688Z,14.00
2024-02-11T03:58:45.818Z,14.05
2024-02-11T04:01:48.137Z,14.00
2024-02-11T04:04:51.111Z,14.03
2024-02-11T04:07:55.204Z,13.97
2024-02-11T04:10:59.141Z,13.98
2024-02-11T04:14:01.550Z,13.94
2024-02-11T04:17:04.657Z,13.97
2024-02-11T04:20:16.251Z,13.97
2024-02-11T04:23:21.093Z,13.98
2024-02-11T04:26:24.841Z,13.96
2024-02-11T04:29:27.125Z,13.98
2024-02-11T04:32:29.472Z,13.85
2024-02-11T04:35:32.611Z,13.96
2024-02-11T04:38:35.338Z,13.96
2024-02-11T04:41:38.415Z,13.97
2024-02-11T04:44:41.172Z,13.94
2024-02-11T04:47:47.941Z,14.00
2024-02-11T04:50:50.237Z,13.97
2024-02-11T04:53:53.663Z,14.02
2024-02-11T04:56:55.837Z,13.97
2024-02-11T04:59:57.964Z,13.96
2024-02-11T05:03:00.182Z,14.01
2024-02-11T05:06:02.495Z,13.95
2024-02-11T05:09:05.233Z,13.93
2024-02-11T05:12:09.237Z,13.95
2024-02-11T05:15:11.509Z,13.98
2024-02-11T05:18:17.335Z,14.00
2024-02-11T05:21:20.875Z,13.98
2024-02-11T05:24:23.075Z,13.96
2024-02-11T05:27:25.239Z,13.89
2024-02-11T05:30:29.016Z,13.94
2024-02-11T05:33:31.197Z,13.91
2024-02-11T05:36:36.229Z,13.89
2024-02-11T05:39:38.381Z,13.88
2024-02-11T05:42:41.349Z,13.84
2024-02-11T05:45:44.039Z,13.81
2024-02-11T05:48:46.304Z,13.79
2024-02-11T05:51:49.465Z,13.77
2024-02-11T05:54:51.707Z,13.69
2024-02-11T05:57:54.504Z,13.76
2024-02-11T06:00:56.734Z,13.73
2024-02-11T06:03:58.922Z,13.75
2024-02-11T06:07:01.172Z,13.73
2024-02-11T06:10:03.827Z,13.69
2024-02-11T06:13:09.874Z,13.65
2024-02-11T06:16:14.158Z,13.54
2024-02-11T06:19:21.123Z,13.63
2024-02-11T06:22:26.318Z,13.64
2024-02-11T06:25:28.579Z,13.69
2024-02-11T06:28:30.757Z,13.66
2024-02-11T06:31:33.125Z,13.71
2024-02-11T06:34:39.253Z,13.74
2024-02-11T06:37:43.139Z,13.74
2024-02-11T06:40:45.407Z,13.73
2024-02-11T06:43:47.663Z,13.73
2024-02-11T06:46:49.884Z,13.72
2024-02-11T06:49:52.848Z,13.73
2024-02-11T06:52:55.107Z,13.80
2024-02-11T06:55:57.900Z,13.76
2024-02-11T06:59:00.165Z,13.85
2024-02-11T07:02:05.921Z,13.86
2024-02-11T07:05:11.972Z,13.85
2024-02-11T07:08:14.497Z,13.96
2024-02-11T07:11:18.214Z,13.90
2024-02-11T07:14:20.573Z,13.97
2024-02-11T07:17:22.896Z,14.01
2024-02-11T07:20:25.552Z,14.05
2024-02-11T07:23:27.905Z,14.05
2024-02-11T07:26:30.156Z,13.91
2024-02-11T07:29:32.413Z,14.07
2024-02-11T07:32:34.777Z,14.05
2024-02-11T07:35:38.556Z,14.05
2024-02-11T07:38:41.788Z,14.04
2024-02-11T07:41:45.190Z,14.06
2024-02-11T07:44:47.475Z,14.08
2024-02-11T07:47:50.590Z,14.09
2024-02-11T07:50:53.268Z,14.00
2024-02-11T07:53:55.465Z,14.03
2024-02-11T07:56:57.589Z,14.11
2024-02-11T08:00:02.585Z,14.09
2024-02-11T08:03:09.263Z,14.03
2024-02-11T08:06:11.702Z,14.07
2024-02-11T08:09:14.031Z,14.10
2024-02-11T08:12:16.222Z,14.04
2024-02-11T08:15:18.531Z,14.04
2024-02-11T08:18:21.890Z,14.06
2024-02-11T08:21:24.143Z,14.02
2024-02-11T08:24:26.419Z,13.98
2024-02-11T08:27:28.601Z,14.04
2024-02-11T08:30:30.782Z,14.04
2024-02-11T08:33:33.711Z,14.07
2024-02-11T08:36:36.002Z,14.05
2024-02-11T08:39:38.228Z,14.10
2024-02-11T08:42:42.163Z,14.04
2024-02-11T08:45:44.393Z,14.06
2024-02-11T08:48:46.718Z,14.09
2024-02-11T08:51:48.985Z,14.07
2024-02-11T08:54:51.159Z,14.09
2024-02-11T08:57:53.634Z,14.08
2024-02-11T09:00:55.927Z,14.10
2024-02-11T09:04:00.152Z,14.10
2024-02-11T09:07:02.386Z,14.09
2024-02-11T09:10:06.280Z,14.12
2024-02-11T09:13:08.431Z,14.14
2024-02-11T09:16:11.756Z,14.06
2024-02-11T09:19:15.396Z,14.10
2024-02-11T09:22:17.751Z,14.15
2024-02-11T09:25:19.960Z,14.09
2024-02-11T09:28:22.301Z,14.15
2024-02-11T09:31:24.452Z,14.19
2024-02-11T09:34:27.181Z,14.22
2024-02-11T09:37:29.945Z,14.26
2024-02-11T09:40:32.115Z,14.24
2024-02-11T09:43:38.388Z,14.32
2024-02-11T09:46:42.075Z,14.31
2024-02-11T09:49:48.103Z,14.31
2024-02-11T09:52:51.413Z,14.32
2024-02-11T09:55:54.401Z,14.33
2024-02-11T09:58:58.684Z,14.38
2024-02-11T10:02:01.242Z,14.37
2024-02-11T10:05:07.733Z,14.38
2024-02-11T10:08:15.084Z,14.33
2024-02-11T10:11:20.254Z,14.28
2024-02-11T10:14:26.981Z,14.35
2024-02-11T10:17:33.056Z,14.43
2024-02-11T10:20:38.547Z,14.43
2024-02-11T10:23:41.066Z,14.49
2024-02-11T10:26:47.010Z,14.51
2024-02-11T10:29:49.218Z,14.57
2024-02-11T10:32:51.706Z,14.62
2024-02-11T10:35:57.208Z,14.62
2024-02-11T10:38:59.347Z,14.65
2024-02-11T10:42:01.538Z,14.67
2024-02-11T10:45:05.331Z,14.69
2024-02-11T10:48:08.170Z,14.66
2024-02-11T10:51:26.489Z,14.73
2024-02-11T10:54:31.289Z,14.71
2024-02-11T10:57:46.984Z,14.78
2024-02-11T11:00:54.069Z,14.75
2024-02-11T11:03:57.351Z,14.81
2024-02-11T11:06:59.896Z,14.70
2024-02-11T11:10:02.213Z,14.80
2024-02-11T11:13:04.908Z,14.91
2024-02-11T11:16:07.420Z,14.96
2024-02-11T11:19:14.324Z,14.97
2024-02-11T11:22:27.856Z,15.04
2024-02-11T11:25:35.885Z,15.06
2024-02-11T11:28:43.223Z,15.06
2024-02-11T11:31:49.437Z,15.07
2024-02-11T11:34:52.408Z,15.04
2024-02-11T11:37:59.645Z,15.04
2024-02-11T11:41:02.049Z,15.09
2024-02-11T11:44:04.495Z,15.09
2024-02-11T11:47:07.136Z,15.07
2024-02-11T11:50:10.653Z,15.13
2024-02-11T11:53:20.978Z,15.09
2024-02-11T11:56:25.008Z,15.09
2024-02-11T11:59:28.124Z,15.07
2024-02-11T12:02:32.203Z,14.98
2024-02-11T12:05:34.650Z,15.02
2024-02-11T12:08:39.061Z,15.00
2024-02-11T12:11:42.381Z,15.00
2024-02-11T12:14:44.900Z,14.99
2024-02-11T12:17:51.304Z,14.98
2024-02-11T12:20:56.609Z,14.98
2024-02-11T12:24:01.917Z,14.98
2024-02-11T12:27:05.291Z,14.97
2024-02-11T12:30:07.683Z,14.96
2024-02-11T12:33:10.438Z,14.95
2024-02-11T12:36:21.159Z,14.99
2024-02-11T12:39:23.368Z,14.95
2024-02-11T12:42:26.473Z,15.04
2024-02-11T12:45:31.500Z,15.03
2024-02-11T12:48:33.757Z,15.02
2024-02-11T12:51:36.033Z,15.07
2024-02-11T12:54:38.254Z,15.08
2024-02-11T12:57:40.431Z,15.05
2024-02-11T13:00:42.636Z,15.09
2024-02-11T13:03:45.086Z,15.12
2024-02-11T13:06:47.470Z,15.16
2024-02-11T13:09:49.621Z,15.18
2024-02-11T13:12:54.204Z,15.19
2024-02-11T13:15:56.803Z,15.21
2024-02-11T13:18:59.170Z,15.21
2024-02-11T13:22:02.045Z,15.27
2024-02-11T13:25:11.559Z,15.30
2024-02-11T13:28:16.546Z,15.25
2024-02-11T13:31:25.224Z,15.28
2024-02-11T13:34:29.830Z,15.37
2024-02-11T13:37:32.003Z,15.44
2024-02-11T13:40:34.634Z,15.43
2024-02-11T13:43:38.647Z,15.44
2024-02-11T13:46:40.953Z,15.47
2024-02-11T13:49:43.212Z,15.54
2024-02-11T13:52:45.385Z,15.55
2024-02-11T13:55:47.651Z,15.58
2024-02-11T13:58:49.935Z,15.53
2024-02-11T14:01:52.597Z,15.56
2024-02-11T14:04:55.049Z,15.56
2024-02-11T14:07:57.424Z,15.56
2024-02-11T14:10:59.999Z,15.51
2024-02-11T14:14:05.329Z,15.51
2024-02-11T14:17:07.813Z,15.50
2024-02-11T14:20:12.338Z,15.50
2024-02-11T14:23:15.138Z,15.48
2024-02-11T14:26:17.960Z,15.42
2024-02-11T14:29:20.442Z,15.46
2024-02-11T14:32:24.175Z,15.39
2024-02-11T14:35:27.036Z,15.47
2024-02-11T14:38:30.522Z,15.44
2024-02-11T14:41:34.191Z,15.44
2024-02-11T14:44:38.520Z,15.44
2024-02-11T14:47:40.826Z,15.40
2024-02-11T14:50:43.011Z,15.37
2024-02-11T14:53:45.239Z,15.30
2024-02-11T14:56:47.529Z,15.31
2024-02-11T14:59:49.844Z,15.27
2024-02-11T15:02:51.987Z,15.31
2024-02-11T15:05:54.271Z,15.29
2024-02-11T15:08:56.731Z,15.24
2024-02-11T15:12:00.956Z,15.25
2024-02-11T15:15:03.666Z,15.20
2024-02-11T15:18:06.122Z,15.18
2024-02-11T15:21:10.214Z,15.17
2024-02-11T15:24:12.445Z,15.11
2024-02-11T15:27:17.111Z,15.16
2024-02-11T15:30:21.631Z,15.10
2024-02-11T15:33:24.844Z,15.12
2024-02-11T15:36:27.097Z,15.11
2024-02-11T15:39:29.276Z,15.07
2024-02-11T15:42:31.428Z,15.07
2024-02-11T15:45:33.591Z,15.07
2024-02-11T15:48:36.782Z,15.01
2024-02-11T15:51:39.046Z,15.00
2024-02-11T15:54:42.611Z,14.99
2024-02-11T15:57:44.759Z,15.01
2024-02-11T16:00:47.786Z,14.96
2024-02-11T16:03:50.348Z,14.98
2024-02-11T16:06:52.600Z,15.00
2024-02-11T16:09:54.875Z,14.97
2024-02-11T16:12:57.390Z,14.99
2024-02-11T16:15:59.700Z,14.93
2024-02-11T16:19:02.253Z,14.89
2024-02-11T16:22:10.784Z,14.91
2024-02-11T16:25:13.319Z,14.86
2024-02-11T16:28:15.561Z,14.86
2024-02-11T16:31:17.753Z,14.83
2024-02-11T16:34:19.899Z,14.82
2024-02-11T16:37:23.683Z,14.82
2024-02-11T16:40:26.288Z,14.80
2024-02-11T16:43:29.418Z,14.85
2024-02-11T16:46:33.887Z,14.83
2024-02-11T16:49:36.295Z,14.77
2024-02-11T16:52:41.753Z,14.82
2024-02-11T16:55:44.209Z,14.79
2024-02-11T16:58:47.239Z,14.77
2024-02-11T17:01:49.732Z,14.71
2024-02-11T17:04:51.973Z,14.71
2024-02-11T17:07:54.315Z,14.70
2024-02-11T17:10:56.946Z,14.67
2024-02-11T17:13:59.179Z,14.67
2024-02-11T17:17:01.805Z,14.68
2024-02-11T17:20:08.869Z,14.63
2024-02-11T17:23:11.242Z,14.60
2024-02-11T17:26:13.981Z,14.57
2024-02-11T17:29:17.275Z,14.56
2024-02-11T17:32:26.916Z,14.55
2024-02-11T17:35:32.759Z,14.54
2024-02-11T17:38:35.254Z,14.56
2024-02-11T17:41:41.592Z,14.55
2024-02-11T17:44:45.929Z,14.57
2024-02-11T17:47:52.889Z,14.53
2024-02-11T17:50:55.120Z,14.51
2024-02-11T17:54:00.537Z,14.50
2024-02-11T17:57:04.383Z,14.46
2024-02-11T18:00:10.771Z,14.46
2024-02-11T18:03:17.191Z,14.47
2024-02-11T18:06:22.552Z,14.43
2024-02-11T18:09:24.777Z,14.42
2024-02-11T18:12:28.872Z,14.45
2024-02-11T18:15:32.534Z,14.45
2024-02-11T18:18:35.361Z,14.44
2024-02-11T18:21:38.441Z,14.47
2024-02-11T18:24:40.612Z,14.47
2024-02-11T18:27:44.831Z,14.47
2024-02-11T18:30:47.008Z,14.44
2024-02-11T18:33:49.749Z,14.44
2024-02-11T18:36:54.015Z,14.31
2024-02-11T18:39:56.253Z,14.43
2024-02-11T18:42:58.426Z,14.38
2024-02-11T18:46:00.995Z,14.44
2024-02-11T18:49:03.822Z,14.41
2024-02-11T18:52:10.291Z,14.40
2024-02-11T18:55:15.509Z,14.44
2024-02-11T18:58:17.919Z,14.42
2024-02-11T19:01:20.088Z,14.37
2024-02-11T19:04:25.205Z,14.39
2024-02-11T19:07:27.450Z,14.40
2024-02-11T19:10:30.681Z,14.45
2024-02-11T19:13:33.229Z,14.48
2024-02-11T19:16:35.694Z,14.44
2024-02-11T19:19:38.616Z,14.43
2024-02-11T19:22:40.749Z,14.31
2024-02-11T19:25:43.069Z,14.25
2024-02-11T19:28:45.933Z,14.16
2024-02-11T19:31:48.418Z,14.15
2024-02-11T19:34:51.033Z,14.03
2024-02-11T19:37:55.349Z,13.97
2024-02-11T19:40:57.854Z,13.94
2024-02-11T19:44:00.906Z,13.96
2024-02-11T19:47:07.184Z,13.87
2024-02-11T19:50:11.610Z,13.87
2024-02-11T19:53:25.697Z,13.75
2024-02-11T19:56:36.070Z,13.59
2024-02-11T19:59:38.382Z,13.64
2024-02-11T20:02:44.174Z,13.63
2024-02-11T20:05:47.387Z,13.68
2024-02-11T20:08:52.816Z,13.72
2024-02-11T20:11:55.135Z,13.64
2024-02-11T20:14:57.373Z,13.52
2024-02-11T20:17:59.942Z,13.63
2024-02-11T20:21:04.019Z,13.51
2024-02-11T20:24:09.089Z,13.54
2024-02-11T20:27:11.966Z,13.58
2024-02-11T20:30:14.885Z,13.56
2024-02-11T20:33:17.118Z,13.49
2024-02-11T20:36:22.092Z,13.51
2024-02-11T20:39:24.296Z,13.48
2024-02-11T20:42:26.486Z,13.53
2024-02-11T20:45:28.681Z,13.48
2024-02-11T20:48:31.370Z,13.40
2024-02-11T20:51:33.733Z,13.39
2024-02-11T20:54:36.871Z,13.40
2024-02-11T20:57:40.385Z,13.44
2024-02-11T21:00:42.809Z,13.42
2024-02-11T21:03:45.095Z,13.40
2024-02-11T21:06:48.504Z,13.46
2024-02-11T21:09:53.734Z,13.36
2024-02-11T21:12:55.862Z,13.32
2024-02-11T21:15:58.077Z,13.25
2024-02-11T21:19:01.283Z,13.27
2024-02-11T21:22:05.028Z,13.32
2024-02-11T21:25:13.000Z,13.29
2024-02-11T21:28:16.834Z,13.24
2024-02-11T21:31:22.438Z,13.28
2024-02-11T21:34:26.014Z,13.24
2024-02-11T21:37:28.349Z,13.21
2024-02-11T21:40:30.813Z,13.18
2024-02-11T21:43:33.002Z,13.10
2024-02-11T21:46:35.229Z,13.19
2024-02-11T21:49:37.412Z,13.15
2024-02-11T21:52:46.581Z,13.19
2024-02-11T21:55:48.824Z,13.18
2024-02-11T21:58:51.039Z,13.17
2024-02-11T22:01:53.264Z,13.17
2024-02-11T22:04:55.576Z,13.14
2024-02-11T22:07:57.933Z,13.13
2024-02-11T22:11:00.472Z,13.16
2024-02-11T22:14:02.706Z,13.10
2024-02-11T22:17:04.900Z,13.02
2024-02-11T22:20:10.637Z,13.03
2024-02-11T22:23:13.206Z,12.98
2024-02-11T22:26:15.457Z,13.05
2024-02-11T22:29:17.719Z,13.00
2024-02-11T22:32:20.001Z,12.94
2024-02-11T22:35:22.507Z,13.04
2024-02-11T22:38:24.937Z,12.99
2024-02-11T22:41:28.522Z,13.01
2024-02-11T22:44:30.935Z,12.97
2024-02-11T22:47:33.411Z,12.95
2024-02-11T22:50:36.616Z,12.95
2024-02-11T22:53:39.198Z,12.95
2024-02-11T22:56:41.747Z,12.89
2024-02-11T22:59:44.802Z,12.82
2024-02-11T23:02:47.056Z,12.90
2024-02-11T23:05:50.570Z,12.94
2024-02-11T23:08:53.096Z,12.86
2024-02-11T23:12:00.699Z,12.88
2024-02-11T23:15:07.027Z,12.77
2024-02-11T23:18:10.006Z,12.75
2024-02-11T23:21:12.286Z,12.77
2024-02-11T23:24:14.970Z,12.76
2024-02-11T23:27:20.452Z,12.64
2024-02-11T23:30:25.597Z,12.64
2024-02-11T23:33:28.269Z,12.63
2024-02-11T23:36:30.580Z,12.56
2024-02-11T23:39:32.749Z,12.59
2024-02-11T23:42:35.670Z,12.62
2024-02-11T23:45:38.194Z,12.70
2024-02-11T23:48:41.926Z,12.70
2024-02-11T23:51:45.213Z,12.64
2024-02-11T23:54:47.388Z,12.57
2024-02-11T23:57:49.895Z,12.55
